Owen, WI

3:15 PM CDT on April 21, 2015 (GMT -0500)
Backyard, N. Andrews Ave | | Change Station
CLOSE
Current Station
Personal Weather Station
Location: Greenwood, WI
Elevation: 1161 ft
Nearby Weather Stations

Elev 1161 ft 44.77 °N, 90.60 °W | Updated 25 seconds ago

Snow
Snow
35.4 °F
Feels Like 28 °F
N
10.1
Wind Variable Wind from West
Gusts 15.2 mph

Today
High -- | Low -- °F
--% Chance of Precip.
Yesterday
High -- | Low -- °F
Precip. -- in
6:07 AM 7:54 PM
Waxing Crescent, 12% visible
Pressure 29.46 in
Visibility 2.5 miles
Clouds Mostly Cloudy 2600 ft
Mostly Cloudy 4700 ft
Mostly Cloudy 6000 ft
Windchill 28 °F
Dew Point 27 °F
Humidity 70%
Rainfall 0.05 in
Snow Depth Not available.
UV 4 out of 12
Pollen 7.60 out of 12
Air Quality Not available.
Flu Activity Local Activity
METAR KMDZ 211955Z AUTO 28012G19KT 2 1/2SM -SN BKN026 BKN047 BKN060 01/M01 A2946 RMK AO2 VIS 1 1/4V5 T00141014

More Conditions Fewer Conditions

Pressure 29.46 in
Visibility 2.5 miles
Clouds Mostly Cloudy 2600 ft
Mostly Cloudy 4700 ft
Mostly Cloudy 6000 ft
Windchill 28 °F
Dew Point 27 °F
Humidity 70%
Rainfall 0.05 in
Snow Depth Not available.
UV 4 out of 12
Pollen 7.60 out of 12
Air Quality Not available.
Flu Activity Local Activity
METAR KMDZ 211955Z AUTO 28012G19KT 2 1/2SM -SN BKN026 BKN047 BKN060 01/M01 A2946 RMK AO2 VIS 1 1/4V5 T00141014

More Conditions Fewer Conditions

10-Day Weather Forecast

Almanac

Astronomy

Apr. 21, 2015 Rise Set
Actual Time
Civil Twilight
Nautical Twilight
Astronomical Twilight
Moon
Length of Visible Light
Length of Day
Tomorrow will be .
, % of the Moon is Illuminated

Today's Extremes

State Highs State Lows

Community

WunderPhotos

Upload Photos

1,815,526 photos uploaded!

WunderBlogs® & News

Nearby

Air Quality

  Air Quality AQ Index Pollutant
Not available.

Snow Depth

Station Depth Elevation

Earthquake Activity

City Distance Mag. Time & Date
Minimum magnitude displayed is 2.5.

Coastal Water Temperatures

Place Temperature

Stations

Nearby Weather Stations

Station Location Temp. Windchill Dew Point Humidity Wind Precip. Elev Updated Type